Time;durP1;ratioP1;P1;durP2;ratioP2;P2;SDS_P1;SDS_P2;PMS_P1;PMS_P2;Temp;Humidity;BMP_temperature;BMP_pressure;BME280_temperature;BME280_humidity;BME280_pressure;Samples;Min_cycle;Max_cycle;Signal;HPM_P1;HPM_P2
2021/06/22 00:00:14;;;;;;;;;;;;;;;13.63;79.74;100877.88;5076267;28;20350;-66
2021/06/22 00:02:40;;;;;;;;;;;;;;;13.66;80.91;100883.19;5077308;28;19916;-66
2021/06/22 00:05:05;;;;;;;;;;;;;;;13.62;80.61;100876.13;5055928;28;20052;-66
2021/06/22 00:07:31;;;;;;;;;;;;;;;13.65;80.07;100883.13;5074266;28;20266;-66
2021/06/22 00:09:56;;;;;;;;;;;;;;;13.60;80.19;100882.94;5056144;28;19920;-66
2021/06/22 00:12:22;;;;;;;;;;;;;;;13.69;79.80;100883.31;5073644;28;19981;-66
2021/06/22 00:14:47;;;;;;;;;;;;;;;13.62;79.78;100870.94;5073916;28;20404;-67
2021/06/22 00:17:13;;;;;;;;;;;;;;;13.67;80.36;100873.69;5073294;28;19916;-66
2021/06/22 00:19:38;;;;;;;;;;;;;;;13.66;80.53;100862.47;5073639;28;20067;-66
2021/06/22 00:22:04;;;;;;;;;;;;;;;13.68;79.37;100866.03;5073720;28;20272;-66
2021/06/22 00:24:29;;;;;;;;;;;;;;;13.48;79.21;100872.09;5055910;28;19950;-66
2021/06/22 00:26:54;;;;;;;;;;;;;;;13.61;80.01;100884.72;5055789;28;19963;-66
2021/06/22 00:29:22;;;;;;;;;;;;;;;13.57;80.19;100891.44;5055625;28;20380;-66
2021/06/22 00:31:48;;;;;;;;;;;;;;;13.53;79.57;100896.47;5073274;28;19916;-67
2021/06/22 00:34:13;;;;;;;;;;;;;;;13.56;79.95;100909.53;5055718;28;20007;-66
2021/06/22 00:36:38;;;;;;;;;;;;;;;13.61;79.12;100915.75;5055309;28;19915;-66
2021/06/22 00:39:04;;;;;;;;;;;;;;;13.58;80.38;100902.69;5073354;28;19913;-66
2021/06/22 00:41:30;;;;;;;;;;;;;;;13.61;80.46;100899.34;5055995;28;19908;-66
2021/06/22 00:44:05;;;;;;;;;;;;;;;13.55;79.67;100906.03;5058069;28;19947;-66
2021/06/22 00:46:30;;;;;;;;;;;;;;;13.58;80.81;100907.88;5055624;28;20003;-66
2021/06/22 00:48:56;;;;;;;;;;;;;;;13.52;80.22;100915.38;5055600;28;19946;-66
2021/06/22 00:51:21;;;;;;;;;;;;;;;13.49;80.57;100925.63;5073632;28;19912;-66
2021/06/22 00:53:46;;;;;;;;;;;;;;;13.53;80.44;100933.56;5073410;28;20471;-66
2021/06/22 00:56:12;;;;;;;;;;;;;;;13.55;81.17;100931.03;5055375;28;20381;-67
2021/06/22 00:58:37;;;;;;;;;;;;;;;13.40;80.98;100932.13;5055531;28;19954;-66
2021/06/22 01:01:03;;;;;;;;;;;;;;;13.48;81.13;100918.66;5072735;28;19920;-67
2021/06/22 01:03:28;;;;;;;;;;;;;;;13.49;79.82;100907.50;5054424;28;20265;-66
2021/06/22 01:05:54;;;;;;;;;;;;;;;13.56;80.06;100917.28;5072752;28;20281;-67
2021/06/22 01:08:19;;;;;;;;;;;;;;;13.55;79.77;100925.88;5073277;28;20074;-66
2021/06/22 01:10:44;;;;;;;;;;;;;;;13.59;79.87;100922.59;5073034;28;20373;-67
2021/06/22 01:13:10;;;;;;;;;;;;;;;13.60;79.61;100924.34;5072840;28;19916;-67
2021/06/22 01:15:35;;;;;;;;;;;;;;;13.61;80.00;100915.75;5060248;28;19908;-66
2021/06/22 01:18:01;;;;;;;;;;;;;;;13.51;80.01;100908.44;5061559;28;19916;-67
2021/06/22 01:20:30;;;;;;;;;;;;;;;13.47;79.83;100914.31;5062007;28;19908;-67
2021/06/22 01:22:57;;;;;;;;;;;;;;;13.46;80.23;100918.59;5045200;28;20028;-67
2021/06/22 01:25:23;;;;;;;;;;;;;;;13.44;80.06;100928.00;5061574;28;19940;-67
2021/06/22 01:27:48;;;;;;;;;;;;;;;13.53;79.69;100932.69;5061367;28;20270;-66
2021/06/22 01:30:13;;;;;;;;;;;;;;;13.59;79.99;100927.75;5061846;28;20388;-66
2021/06/22 01:32:40;;;;;;;;;;;;;;;13.49;80.26;100923.03;5061241;28;20285;-66
2021/06/22 01:35:06;;;;;;;;;;;;;;;13.33;81.34;100914.59;5061694;28;19908;-67
2021/06/22 01:37:32;;;;;;;;;;;;;;;13.31;81.24;100916.22;5079434;28;20348;-66
2021/06/22 01:40:00;;;;;;;;;;;;;;;13.42;80.72;100920.19;5079537;28;20054;-65
2021/06/22 01:42:26;;;;;;;;;;;;;;;13.41;80.48;100913.22;5044813;28;20332;-67
2021/06/22 01:44:53;;;;;;;;;;;;;;;13.39;79.61;100909.66;5079586;28;20006;-67
2021/06/22 01:47:19;;;;;;;;;;;;;;;13.26;80.01;100918.59;5079261;28;19912;-67
2021/06/22 01:49:44;;;;;;;;;;;;;;;13.23;79.54;100920.16;5079618;28;19969;-66
2021/06/22 01:52:13;;;;;;;;;;;;;;;13.03;81.33;100930.53;5061045;28;20391;-66
2021/06/22 01:54:39;;;;;;;;;;;;;;;13.05;80.12;100923.72;5061518;28;20276;-66
2021/06/22 01:57:04;;;;;;;;;;;;;;;13.05;80.80;100928.91;5061438;28;20400;-66
2021/06/22 01:59:30;;;;;;;;;;;;;;;13.01;81.53;100929.59;5061487;28;19908;-66
2021/06/22 02:01:55;;;;;;;;;;;;;;;13.03;81.16;100940.88;5079022;28;19974;-66
2021/06/22 02:04:20;;;;;;;;;;;;;;;12.94;80.77;100940.47;5078890;28;19959;-66
2021/06/22 02:06:47;;;;;;;;;;;;;;;12.85;81.33;100936.66;5061307;28;19912;-66
2021/06/22 02:09:13;;;;;;;;;;;;;;;12.89;81.27;100941.97;5027440;28;20349;-66
2021/06/22 02:11:38;;;;;;;;;;;;;;;12.95;81.03;100944.81;5024427;28;20003;-67
2021/06/22 02:14:05;;;;;;;;;;;;;;;12.82;81.31;100957.22;5041372;28;19944;-67
2021/06/22 02:16:31;;;;;;;;;;;;;;;12.92;80.59;100963.69;5059385;28;20007;-66
2021/06/22 02:18:57;;;;;;;;;;;;;;;12.84;80.40;100971.09;5059276;28;19952;-66
2021/06/22 02:21:22;;;;;;;;;;;;;;;12.94;81.05;100971.50;5043677;28;19920;-67
2021/06/22 02:23:48;;;;;;;;;;;;;;;13.00;80.83;100984.69;5079236;28;20038;-67
2021/06/22 02:26:13;;;;;;;;;;;;;;;13.03;80.27;100981.38;5059383;28;19915;-67
2021/06/22 02:28:38;;;;;;;;;;;;;;;13.12;79.50;100977.47;5058190;28;19909;-66
2021/06/22 02:31:04;;;;;;;;;;;;;;;13.08;78.91;100985.94;5058056;28;20280;-67
2021/06/22 02:33:29;;;;;;;;;;;;;;;13.10;78.83;100988.59;5058511;28;20310;-66
2021/06/22 02:35:55;;;;;;;;;;;;;;;13.23;78.91;100992.59;5058239;28;19915;-67
2021/06/22 02:38:20;;;;;;;;;;;;;;;13.23;78.55;100992.59;5075407;28;20365;-67
2021/06/22 02:40:46;;;;;;;;;;;;;;;13.21;78.84;100999.41;5057842;28;19995;-67
2021/06/22 02:43:13;;;;;;;;;;;;;;;13.19;78.85;100999.34;5057984;28;19908;-66
2021/06/22 02:45:42;;;;;;;;;;;;;;;13.24;78.55;101002.13;5054212;28;19916;-66
2021/06/22 02:48:11;;;;;;;;;;;;;;;13.27;78.05;100992.81;5074890;28;19966;-67
2021/06/22 02:50:37;;;;;;;;;;;;;;;13.26;77.63;100979.81;5075045;28;19916;-66
2021/06/22 02:53:02;;;;;;;;;;;;;;;13.21;78.95;100981.28;5075363;28;19912;-66
2021/06/22 02:55:27;;;;;;;;;;;;;;;13.27;78.36;100971.25;5057262;28;19908;-67
2021/06/22 02:57:53;;;;;;;;;;;;;;;13.30;77.99;100955.84;5057721;28;19955;-66
2021/06/22 03:00:20;;;;;;;;;;;;;;;13.31;78.34;100960.22;5057472;28;20020;-67
2021/06/22 03:02:45;;;;;;;;;;;;;;;13.34;78.00;100962.94;5057398;28;19967;-66
2021/06/22 03:05:11;;;;;;;;;;;;;;;13.29;78.27;100964.44;5075210;28;20377;-66
2021/06/22 03:07:36;;;;;;;;;;;;;;;13.30;78.12;100958.44;5057006;28;20056;-67
2021/06/22 03:10:04;;;;;;;;;;;;;;;13.30;78.20;100966.19;5057425;28;19963;-66
2021/06/22 03:12:30;;;;;;;;;;;;;;;13.27;79.79;100963.47;5053610;28;19966;-67
2021/06/22 03:14:55;;;;;;;;;;;;;;;13.36;78.06;100956.13;5055147;28;20328;-67
2021/06/22 03:17:20;;;;;;;;;;;;;;;13.30;77.90;100961.03;5056652;28;20377;-66
2021/06/22 03:19:46;;;;;;;;;;;;;;;13.31;78.23;100967.97;5073100;28;19961;-66
2021/06/22 03:22:11;;;;;;;;;;;;;;;13.40;77.90;100968.38;5054859;28;20305;-67
2021/06/22 03:24:37;;;;;;;;;;;;;;;13.46;77.63;100977.25;5055060;28;19909;-66
2021/06/22 03:27:02;;;;;;;;;;;;;;;13.43;77.38;100978.88;5054579;28;20326;-66
2021/06/22 03:29:28;;;;;;;;;;;;;;;13.40;77.77;100989.06;5054702;28;20441;-67
2021/06/22 03:31:53;;;;;;;;;;;;;;;13.39;77.98;100987.28;5053622;28;20285;-66
2021/06/22 03:34:18;;;;;;;;;;;;;;;13.42;78.04;100982.28;5054968;28;20375;-66
2021/06/22 03:36:44;;;;;;;;;;;;;;;13.43;77.82;100996.09;5053321;28;19919;-66
2021/06/22 03:39:09;;;;;;;;;;;;;;;13.43;78.01;100994.41;5053361;28;20071;-66
2021/06/22 03:41:35;;;;;;;;;;;;;;;13.44;78.13;101001.34;5053352;28;19991;-66
2021/06/22 03:44:01;;;;;;;;;;;;;;;13.43;78.12;101004.75;5053474;28;20308;-66
2021/06/22 03:46:26;;;;;;;;;;;;;;;13.48;77.49;101006.66;5053290;28;19909;-66
2021/06/22 03:48:51;;;;;;;;;;;;;;;13.53;77.34;101020.66;5053440;28;19912;-66
2021/06/22 03:51:17;;;;;;;;;;;;;;;13.55;77.75;101024.22;5054122;28;19916;-66
2021/06/22 03:53:42;;;;;;;;;;;;;;;13.52;78.03;101031.84;5053219;28;20358;-67
2021/06/22 03:56:08;;;;;;;;;;;;;;;13.47;78.53;101035.94;5054183;28;20290;-66
2021/06/22 03:58:34;;;;;;;;;;;;;;;13.43;79.09;101056.50;5053135;28;19940;-66
2021/06/22 04:00:59;;;;;;;;;;;;;;;13.38;79.07;101063.16;5052862;28;20334;-66
2021/06/22 04:03:25;;;;;;;;;;;;;;;13.48;78.93;101055.81;5053347;28;20018;-67
2021/06/22 04:05:50;;;;;;;;;;;;;;;13.38;79.22;101062.25;5052761;28;19912;-67
2021/06/22 04:08:16;;;;;;;;;;;;;;;13.44;78.88;101053.09;5054249;28;19908;-67
2021/06/22 04:10:41;;;;;;;;;;;;;;;13.58;79.23;101050.22;5053737;28;19943;-66
2021/06/22 04:13:06;;;;;;;;;;;;;;;13.63;78.50;101038.38;5068522;28;20284;-67
2021/06/22 04:15:32;;;;;;;;;;;;;;;13.63;78.38;101028.00;5074281;28;20284;-67
2021/06/22 04:18:08;;;;;;;;;;;;;;;13.68;78.27;101028.19;5073997;28;19909;-67
2021/06/22 04:20:33;;;;;;;;;;;;;;;13.77;77.78;101025.13;5073632;28;20396;-66
2021/06/22 04:22:59;;;;;;;;;;;;;;;13.68;77.42;101021.31;5039153;28;19909;-66
2021/06/22 04:25:24;;;;;;;;;;;;;;;13.76;77.73;101018.19;5074167;28;19912;-67
2021/06/22 04:27:50;;;;;;;;;;;;;;;13.75;77.48;101019.00;5073523;28;19920;-67
2021/06/22 04:30:16;;;;;;;;;;;;;;;13.78;76.52;101029.47;5073617;28;20357;-66
2021/06/22 04:32:41;;;;;;;;;;;;;;;13.78;78.00;101026.88;5073115;28;19956;-67
2021/06/22 04:35:07;;;;;;;;;;;;;;;13.81;76.22;101032.19;5065690;28;19997;-66
2021/06/22 04:37:32;;;;;;;;;;;;;;;13.84;76.84;101032.31;5073009;28;19959;-66
2021/06/22 04:39:58;;;;;;;;;;;;;;;13.70;77.01;101024.88;5074512;28;19935;-66
2021/06/22 04:42:23;;;;;;;;;;;;;;;13.67;77.67;101019.56;5072553;28;20336;-67
2021/06/22 04:44:49;;;;;;;;;;;;;;;13.73;77.68;101016.31;5083340;28;19961;-67
2021/06/22 04:47:14;;;;;;;;;;;;;;;13.82;77.06;101002.91;5080784;28;20403;-66
2021/06/22 04:49:39;;;;;;;;;;;;;;;13.73;76.75;101009.47;5072433;28;19912;-67
2021/06/22 04:52:05;;;;;;;;;;;;;;;13.82;76.85;101002.91;5073236;28;19919;-67
2021/06/22 04:54:30;;;;;;;;;;;;;;;13.79;76.99;101007.94;5055350;28;19936;-66
2021/06/22 04:56:56;;;;;;;;;;;;;;;13.84;76.46;101006.44;5072983;28;19995;-67
2021/06/22 04:59:21;;;;;;;;;;;;;;;13.87;76.44;101006.56;5072970;28;19962;-67
2021/06/22 05:01:47;;;;;;;;;;;;;;;13.85;76.30;101013.38;5055075;28;20360;-67
2021/06/22 05:04:13;;;;;;;;;;;;;;;13.79;76.14;101018.31;5055238;28;19912;-67
2021/06/22 05:06:39;;;;;;;;;;;;;;;13.94;75.77;101016.34;5072801;28;20273;-67
2021/06/22 05:09:04;;;;;;;;;;;;;;;13.93;76.13;101017.16;5078567;28;19912;-67
2021/06/22 05:11:30;;;;;;;;;;;;;;;13.85;75.89;101018.56;5071182;28;20399;-67
2021/06/22 05:13:56;;;;;;;;;;;;;;;13.97;75.31;101023.38;5072038;28;19947;-67
2021/06/22 05:16:22;;;;;;;;;;;;;;;13.90;76.16;101022.22;5055158;28;20016;-67
2021/06/22 05:18:48;;;;;;;;;;;;;;;13.92;76.21;101024.91;5077770;28;19963;-67
2021/06/22 05:21:13;;;;;;;;;;;;;;;13.87;76.25;101032.47;5075033;28;19908;-67
2021/06/22 05:23:39;;;;;;;;;;;;;;;13.93;76.22;101043.06;5050711;28;20449;-67
2021/06/22 05:26:04;;;;;;;;;;;;;;;13.92;75.56;101041.31;5072475;28;19913;-67
2021/06/22 05:28:29;;;;;;;;;;;;;;;13.87;75.72;101043.72;5073009;28;19942;-67
2021/06/22 05:30:55;;;;;;;;;;;;;;;13.90;76.41;101037.75;5077554;28;20387;-67
2021/06/22 05:33:20;;;;;;;;;;;;;;;13.98;75.86;101051.91;5054248;28;20361;-67
2021/06/22 05:35:46;;;;;;;;;;;;;;;13.93;76.08;101048.25;5072383;28;19908;-66
2021/06/22 05:38:11;;;;;;;;;;;;;;;14.02;76.19;101048.63;5072264;28;20418;-67
2021/06/22 05:40:37;;;;;;;;;;;;;;;14.09;75.38;101048.88;5072437;28;19952;-67
2021/06/22 05:43:03;;;;;;;;;;;;;;;14.20;75.48;101063.16;5054260;28;19919;-67
2021/06/22 05:45:28;;;;;;;;;;;;;;;14.20;75.05;101068.34;5072180;28;19955;-67
2021/06/22 05:47:53;;;;;;;;;;;;;;;14.34;74.89;101066.31;5072295;28;19961;-67
2021/06/22 05:50:19;;;;;;;;;;;;;;;14.49;74.24;101063.47;5057306;28;19908;-67
2021/06/22 05:52:45;;;;;;;;;;;;;;;14.55;73.51;101071.50;5057066;28;19923;-67
2021/06/22 05:55:17;;;;;;;;;;;;;;;14.78;72.91;101063.75;5054630;28;19913;-67
2021/06/22 05:57:46;;;;;;;;;;;;;;;15.05;72.89;101063.03;5060976;28;19909;-66
2021/06/22 06:00:12;;;;;;;;;;;;;;;15.13;71.39;101072.00;5060659;28;19923;-66
2021/06/22 06:02:37;;;;;;;;;;;;;;;15.25;70.77;101073.28;5074388;28;19908;-67
2021/06/22 06:05:03;;;;;;;;;;;;;;;15.56;70.11;101071.81;5058383;28;19912;-67
2021/06/22 06:07:29;;;;;;;;;;;;;;;15.87;69.38;101083.28;5076288;28;20338;-67
2021/06/22 06:09:55;;;;;;;;;;;;;;;15.80;67.84;101078.69;5076507;28;19908;-67
2021/06/22 06:12:20;;;;;;;;;;;;;;;15.98;68.22;101079.34;5075715;28;20002;-66
2021/06/22 06:14:46;;;;;;;;;;;;;;;16.25;67.34;101080.25;5075818;28;19912;-67
2021/06/22 06:17:11;;;;;;;;;;;;;;;16.38;65.77;101081.50;5075734;28;19955;-67
2021/06/22 06:19:36;;;;;;;;;;;;;;;16.39;64.97;101091.06;5075407;28;20262;-66
2021/06/22 06:22:02;;;;;;;;;;;;;;;16.54;65.32;101089.00;5058046;28;19913;-67
2021/06/22 06:24:27;;;;;;;;;;;;;;;16.58;63.76;101085.66;5058184;28;20401;-67
2021/06/22 06:27:15;;;;;;;;;;;;;;;16.48;64.08;101094.00;5075699;28;19912;-67
2021/06/22 06:32:12;;;;;;;;;;;;;;;16.27;64.26;101099.38;5058997;28;20258;-67
2021/06/22 06:34:37;;;;;;;;;;;;;;;16.27;64.24;101095.03;5058163;28;20069;-67
2021/06/22 06:37:03;;;;;;;;;;;;;;;16.23;64.76;101095.78;5057498;28;19912;-67
2021/06/22 06:39:29;;;;;;;;;;;;;;;16.34;64.84;101101.34;5075798;28;19931;-67
2021/06/22 06:41:54;;;;;;;;;;;;;;;16.64;64.49;101095.34;5057834;28;19908;-67
2021/06/22 06:44:20;;;;;;;;;;;;;;;16.61;64.53;101096.16;5075781;28;19908;-67
2021/06/22 06:46:45;;;;;;;;;;;;;;;16.38;64.50;101104.91;5074921;28;19912;-67
2021/06/22 06:49:11;;;;;;;;;;;;;;;16.43;63.63;101108.53;5057106;28;20373;-67
2021/06/22 06:51:36;;;;;;;;;;;;;;;16.55;61.94;101111.56;5057017;28;19919;-67
2021/06/22 06:54:01;;;;;;;;;;;;;;;16.76;63.02;101115.66;5075119;28;19919;-66
2021/06/22 06:56:27;;;;;;;;;;;;;;;16.91;61.30;101113.53;5074955;28;19958;-66
2021/06/22 06:58:52;;;;;;;;;;;;;;;16.94;61.85;101120.53;5074823;28;19927;-66
2021/06/22 07:01:18;;;;;;;;;;;;;;;17.16;61.64;101116.03;5071943;28;19919;-67
2021/06/22 07:03:44;;;;;;;;;;;;;;;17.04;61.35;101132.16;5074531;28;19927;-66
2021/06/22 07:06:10;;;;;;;;;;;;;;;17.14;61.90;101134.19;5057223;28;19908;-66
2021/06/22 07:08:35;;;;;;;;;;;;;;;17.21;60.29;101136.16;5074618;28;20277;-67
2021/06/22 07:11:01;;;;;;;;;;;;;;;17.29;59.97;101132.88;5074263;28;20365;-66
2021/06/22 07:13:26;;;;;;;;;;;;;;;17.68;59.13;101132.28;5039454;28;20323;-66
2021/06/22 07:15:52;;;;;;;;;;;;;;;17.76;57.50;101125.56;5056787;28;19913;-67
2021/06/22 07:18:17;;;;;;;;;;;;;;;18.13;57.81;101127.41;5072017;28;19908;-67
2021/06/22 07:20:43;;;;;;;;;;;;;;;18.74;54.83;101127.16;5074248;28;19913;-67
2021/06/22 07:23:08;;;;;;;;;;;;;;;18.86;53.65;101119.63;5074318;28;20392;-67
2021/06/22 07:25:34;;;;;;;;;;;;;;;19.20;53.38;101120.38;5074216;28;19912;-67
2021/06/22 07:27:59;;;;;;;;;;;;;;;18.95;52.83;101124.16;5074724;28;19908;-67
2021/06/22 07:30:26;;;;;;;;;;;;;;;18.75;52.59;101126.31;5056932;28;19918;-66
2021/06/22 07:32:52;;;;;;;;;;;;;;;18.50;54.63;101133.53;5055024;28;19913;-67
2021/06/22 07:35:17;;;;;;;;;;;;;;;18.21;54.14;101131.09;5055228;28;20324;-66
2021/06/22 07:37:43;;;;;;;;;;;;;;;17.84;54.97;101133.56;5055041;28;19915;-66
2021/06/22 07:40:09;;;;;;;;;;;;;;;17.87;54.96;101135.41;5055210;28;19909;-65
2021/06/22 07:42:35;;;;;;;;;;;;;;;18.01;54.55;101146.19;5054819;28;19913;-66
2021/06/22 07:45:00;;;;;;;;;;;;;;;17.98;54.60;101157.41;5055184;28;19947;-65
2021/06/22 07:47:25;;;;;;;;;;;;;;;18.02;54.00;101159.28;5072320;28;20032;-64
2021/06/22 07:49:51;;;;;;;;;;;;;;;18.27;53.12;101149.50;5072621;28;19962;-65
2021/06/22 07:52:16;;;;;;;;;;;;;;;18.52;53.28;101155.31;5072836;28;19999;-65
2021/06/22 07:54:42;;;;;;;;;;;;;;;18.90;50.48;101142.34;5072880;28;19985;-66
2021/06/22 07:57:07;;;;;;;;;;;;;;;18.84;51.56;101137.84;5054337;28;20426;-65
2021/06/22 07:59:32;;;;;;;;;;;;;;;18.54;50.87;101132.78;5054580;28;19908;-65
2021/06/22 08:01:58;;;;;;;;;;;;;;;18.72;52.15;101131.47;5055401;28;20005;-65
2021/06/22 08:04:23;;;;;;;;;;;;;;;19.11;51.05;101147.19;5054098;28;19918;-65
2021/06/22 08:06:52;;;;;;;;;;;;;;;19.11;50.84;101154.13;5054678;28;19908;-66
2021/06/22 08:09:17;;;;;;;;;;;;;;;19.50;49.69;101160.19;5072311;28;19912;-65
2021/06/22 08:11:42;;;;;;;;;;;;;;;19.88;48.43;101162.66;5054072;28;19916;-66
2021/06/22 08:14:08;;;;;;;;;;;;;;;20.41;46.83;101153.19;5072142;28;19912;-66
2021/06/22 08:16:33;;;;;;;;;;;;;;;20.38;47.22;101154.00;5054456;28;19913;-66
2021/06/22 08:18:59;;;;;;;;;;;;;;;20.08;46.45;101163.09;5072377;28;19915;-66
2021/06/22 08:21:24;;;;;;;;;;;;;;;19.34;47.00;101158.97;5071907;28;19923;-66
2021/06/22 08:23:50;;;;;;;;;;;;;;;19.38;49.88;101160.78;5071491;28;19965;-68
2021/06/22 08:26:15;;;;;;;;;;;;;;;19.50;50.97;101160.19;5054050;28;19936;-65
2021/06/22 08:28:41;;;;;;;;;;;;;;;19.77;50.19;101165.09;5071811;28;20018;-66
2021/06/22 08:31:07;;;;;;;;;;;;;;;20.03;49.24;101172.56;5071571;28;19918;-66
2021/06/22 08:33:33;;;;;;;;;;;;;;;19.83;48.19;101157.38;5071961;28;19913;-66
2021/06/22 08:35:58;;;;;;;;;;;;;;;20.15;48.40;101153.63;5072014;28;19913;-66
2021/06/22 08:38:24;;;;;;;;;;;;;;;19.84;48.76;101161.75;5033936;28;19917;-66
2021/06/22 08:40:49;;;;;;;;;;;;;;;20.12;48.69;101154.44;5060788;28;19916;-65
2021/06/22 08:43:16;;;;;;;;;;;;;;;20.77;47.71;101156.38;5052819;28;19999;-66
2021/06/22 08:45:42;;;;;;;;;;;;;;;21.25;42.82;101155.34;5053833;28;19923;-65
2021/06/22 08:48:09;;;;;;;;;;;;;;;21.24;43.76;101143.09;5053728;28;19908;-65
2021/06/22 08:50:35;;;;;;;;;;;;;;;21.45;42.85;101146.84;5054092;28;19939;-64
2021/06/22 08:53:01;;;;;;;;;;;;;;;21.83;43.53;101143.84;5053253;28;19969;-66
2021/06/22 08:55:29;;;;;;;;;;;;;;;22.24;43.94;101150.34;5035372;28;19916;-66
2021/06/22 08:58:05;;;;;;;;;;;;;;;22.52;40.71;101142.75;5053971;28;19962;-66
2021/06/22 09:00:31;;;;;;;;;;;;;;;23.29;42.56;101142.38;5033965;28;19915;-66
2021/06/22 09:03:01;;;;;;;;;;;;;;;23.60;38.83;101138.97;5042292;28;19917;-65
2021/06/22 09:05:27;;;;;;;;;;;;;;;23.44;38.17;101143.28;5054148;28;19958;-65
2021/06/22 09:07:55;;;;;;;;;;;;;;;23.10;40.01;101135.22;5072658;28;19955;-66
2021/06/22 09:10:22;;;;;;;;;;;;;;;22.92;39.84;101134.28;5054109;28;20431;-65
2021/06/22 09:12:48;;;;;;;;;;;;;;;22.24;41.87;101144.22;5071468;28;20404;-66
2021/06/22 09:15:21;;;;;;;;;;;;;;;21.93;42.49;101143.94;5036987;28;19951;-65
2021/06/22 09:17:47;;;;;;;;;;;;;;;21.26;44.01;101156.25;5072081;28;19919;-66
2021/06/22 09:20:30;;;;;;;;;;;;;;;20.93;43.65;101157.50;5054535;28;19912;-64
2021/06/22 09:23:10;;;;;;;;;;;;;;;20.40;44.43;101152.28;5054985;28;19962;-65
2021/06/22 09:25:35;;;;;;;;;;;;;;;20.31;44.79;101154.75;5072883;28;20381;-65
2021/06/22 09:28:00;;;;;;;;;;;;;;;20.23;45.33;101158.97;5072699;28;19944;-65
2021/06/22 09:30:35;;;;;;;;;;;;;;;20.56;44.66;101163.00;5054471;28;20293;-66
2021/06/22 09:33:19;;;;;;;;;;;;;;;20.90;43.31;101158.34;5072312;28;20296;-66
2021/06/22 09:35:45;;;;;;;;;;;;;;;21.25;44.43;101155.34;5060658;28;20277;-67
2021/06/22 09:38:11;;;;;;;;;;;;;;;20.89;44.05;101160.94;5057788;28;19915;-66
2021/06/22 09:40:37;;;;;;;;;;;;;;;20.64;45.74;101161.41;5058282;28;20003;-66
2021/06/22 09:43:03;;;;;;;;;;;;;;;20.54;46.40;101175.19;5075137;28;20011;-67
2021/06/22 09:45:29;;;;;;;;;;;;;;;20.56;46.71;101168.25;5057623;28;19916;-67
2021/06/22 09:48:02;;;;;;;;;;;;;;;21.04;45.33;101155.06;5058581;28;19908;-66
2021/06/22 09:50:39;;;;;;;;;;;;;;;21.36;44.10;101151.97;5059051;28;20331;-67
2021/06/22 09:53:23;;;;;;;;;;;;;;;22.07;41.60;101154.53;5055186;28;19909;-67
2021/06/22 09:55:48;;;;;;;;;;;;;;;23.82;39.16;101154.81;5058571;28;19931;-67
2021/06/22 09:58:14;;;;;;;;;;;;;;;25.17;36.16;101163.59;5058375;28;19912;-66
2021/06/22 10:00:40;;;;;;;;;;;;;;;25.72;35.15;101166.03;5076411;28;20285;-66
2021/06/22 10:03:05;;;;;;;;;;;;;;;25.53;33.77;101160.84;5041827;28;20349;-66
2021/06/22 10:05:31;;;;;;;;;;;;;;;24.59;36.21;101161.91;5058571;28;19915;-66
2021/06/22 10:08:00;;;;;;;;;;;;;;;23.59;36.78;101164.38;5057573;28;19951;-67
2021/06/22 10:10:35;;;;;;;;;;;;;;;23.10;37.34;101151.00;5075717;28;20312;-65
2021/06/22 10:13:01;;;;;;;;;;;;;;;25.01;35.16;101167.16;5038406;28;19978;-66
2021/06/22 10:15:26;;;;;;;;;;;;;;;26.02;33.33;101164.13;5057915;28;20361;-66
2021/06/22 10:17:52;;;;;;;;;;;;;;;26.06;32.41;101161.44;5057738;28;19912;-67
2021/06/22 10:20:17;;;;;;;;;;;;;;;26.29;29.29;101156.91;5057635;28;19908;-66
2021/06/22 10:22:45;;;;;;;;;;;;;;;26.57;31.03;101159.28;5057648;28;19991;-67
2021/06/22 10:25:11;;;;;;;;;;;;;;;26.77;30.42;101159.97;5056478;28;19919;-66
2021/06/22 10:27:36;;;;;;;;;;;;;;;26.15;31.80;101155.25;5056721;28;20284;-66
2021/06/22 10:30:04;;;;;;;;;;;;;;;25.02;34.33;101164.53;5057434;28;19916;-66
2021/06/22 10:32:30;;;;;;;;;;;;;;;24.62;36.05;101175.09;5057390;28;20377;-67
2021/06/22 10:35:08;;;;;;;;;;;;;;;23.82;36.50;101166.19;5057705;28;19951;-65
2021/06/22 10:37:37;;;;;;;;;;;;;;;23.19;37.67;101153.66;5074986;28;19944;-64
2021/06/22 10:40:11;;;;;;;;;;;;;;;24.15;35.73;101161.94;5071738;28;20332;-66
2021/06/22 10:42:40;;;;;;;;;;;;;;;25.78;30.84;101166.00;5074607;28;19912;-67
2021/06/22 10:45:06;;;;;;;;;;;;;;;27.21;29.22;101162.19;5073635;28;19919;-66
2021/06/22 10:47:38;;;;;;;;;;;;;;;28.21;27.93;101165.28;5037904;28;20321;-68
2021/06/22 10:50:06;;;;;;;;;;;;;;;28.57;27.90;101169.94;5053553;28;20396;-66
2021/06/22 10:52:46;;;;;;;;;;;;;;;27.83;29.92;101175.53;5056633;28;19973;-67
2021/06/22 10:55:22;;;;;;;;;;;;;;;28.33;28.00;101171.28;5073496;28;19978;-67
2021/06/22 10:57:55;;;;;;;;;;;;;;;27.93;28.71;101170.94;5072224;28;19991;-66
2021/06/22 11:00:21;;;;;;;;;;;;;;;29.12;26.99;101154.81;5056463;28;19919;-67
2021/06/22 11:02:59;;;;;;;;;;;;;;;30.64;25.87;101165.59;5073410;28;19920;-68
2021/06/22 11:05:24;;;;;;;;;;;;;;;31.69;22.90;101167.03;5073908;28;20005;-69
2021/06/22 11:08:08;;;;;;;;;;;;;;;30.67;24.42;101170.81;5067163;28;19947;-68
2021/06/22 11:10:35;;;;;;;;;;;;;;;28.92;27.03;101167.59;5072982;28;19908;-67
2021/06/22 11:13:00;;;;;;;;;;;;;;;28.94;29.01;101168.44;5071518;28;19916;-67
2021/06/22 11:15:45;;;;;;;;;;;;;;;27.91;28.83;101172.75;5073157;28;19957;-68
2021/06/22 11:18:15;;;;;;;;;;;;;;;26.60;31.63;101175.13;5073168;28;19909;-68
2021/06/22 11:20:42;;;;;;;;;;;;;;;26.90;31.79;101173.09;5056965;28;20266;-67
2021/06/22 11:23:08;;;;;;;;;;;;;;;27.83;29.82;101179.91;5055375;28;19912;-68
2021/06/22 11:26:01;;;;;;;;;;;;;;;28.08;30.00;101168.97;5073221;28;19912;-68
2021/06/22 11:28:27;;;;;;;;;;;;;;;27.54;30.58;101173.28;5069617;28;20285;-68
2021/06/22 11:30:53;;;;;;;;;;;;;;;25.78;31.44;101166.88;5054331;28;19931;-67
2021/06/22 11:33:42;;;;;;;;;;;;;;;25.35;32.46;101175.84;5064397;28;20330;-67
2021/06/22 11:36:17;;;;;;;;;;;;;;;25.38;33.24;101165.28;5053492;28;19909;-67
2021/06/22 11:38:43;;;;;;;;;;;;;;;25.35;34.68;101167.03;5073309;28;20012;-68
2021/06/22 11:41:12;;;;;;;;;;;;;;;26.19;33.79;101177.19;5054349;28;19993;-68
2021/06/22 11:43:49;;;;;;;;;;;;;;;25.99;31.08;101172.06;5054791;28;19919;-68
2021/06/22 11:46:28;;;;;;;;;;;;;;;26.10;32.80;101178.13;5055331;28;20348;-67
2021/06/22 11:48:57;;;;;;;;;;;;;;;26.04;32.08;101178.19;5055948;28;20061;-67
2021/06/22 11:51:42;;;;;;;;;;;;;;;25.33;33.28;101174.97;5038445;28;20046;-67
2021/06/22 11:54:08;;;;;;;;;;;;;;;25.55;34.14;101171.41;5056151;28;19926;-67
2021/06/22 11:56:37;;;;;;;;;;;;;;;25.40;32.28;101167.03;5056433;28;20021;-66
2021/06/22 11:59:02;;;;;;;;;;;;;;;25.42;32.52;101173.19;5056167;28;19981;-66
2021/06/22 12:01:28;;;;;;;;;;;;;;;25.47;34.36;101168.78;5056071;28;19991;-66
2021/06/22 12:03:53;;;;;;;;;;;;;;;25.73;33.40;101173.06;5039491;28;20356;-65
2021/06/22 12:06:21;;;;;;;;;;;;;;;25.99;31.06;101164.13;5056375;28;20326;-66
2021/06/22 12:08:46;;;;;;;;;;;;;;;25.96;33.87;101171.16;5037225;28;20293;-66
2021/06/22 12:11:13;;;;;;;;;;;;;;;25.85;32.64;101166.84;5072190;28;20373;-66
2021/06/22 12:13:40;;;;;;;;;;;;;;;25.81;32.49;101161.59;5073311;28;19917;-66
2021/06/22 12:16:15;;;;;;;;;;;;;;;26.03;32.63;101155.31;5073868;28;19915;-66
2021/06/22 12:18:41;;;;;;;;;;;;;;;25.69;31.75;101160.78;5055877;28;19958;-66
2021/06/22 12:21:06;;;;;;;;;;;;;;;25.64;33.41;101161.69;5073916;28;20327;-68
2021/06/22 12:23:32;;;;;;;;;;;;;;;25.74;32.65;101159.88;5073734;28;19962;-68
2021/06/22 12:25:57;;;;;;;;;;;;;;;26.17;34.06;101163.13;5073497;28;19912;-68
2021/06/22 12:28:24;;;;;;;;;;;;;;;26.06;33.06;101171.13;5073533;28;19927;-68
2021/06/22 12:30:50;;;;;;;;;;;;;;;25.21;33.98;101175.03;5054249;28;19908;-69
2021/06/22 12:33:23;;;;;;;;;;;;;;;25.16;33.87;101160.97;5054137;28;21152;-68
2021/06/22 12:35:49;;;;;;;;;;;;;;;24.78;33.52;101166.31;5054961;28;19919;-68